Ash Creek, OR

12:11 AM PDT on September 03, 2014 (GMT -0700)
South Burlingame | Change Station
CLOSE
Current Station
Personal Weather Station
Location: Portland, OR
Elevation: 446 ft
Nearby Weather Stations

Elev 446 ft 45.46 °N, 122.68 °W | Updated 3 seconds ago

Partly Cloudy
Partly Cloudy
59.4 °F
Feels Like 59.4 °F
N
0.0
Wind Variable Wind from North
Gusts 0.0 mph

Today
High -- | Low -- °F
--% Chance of Precip.
Yesterday
High -- | Low -- °F
Precip. -- in
6:34 AM 7:44 PM
First Quarter, 59% visible
Pressure 30.00 in
Visibility 10.0 miles
Clouds Few 4900 ft
Mostly Cloudy 6000 ft
Dew Point 47 °F
Humidity 64%
Rainfall 0.00 in
Snow Depth Not available.
UV 0 out of 12
Pollen 3.60 out of 12
Ozone Good
PM2.5 Good
Flu Activity Not available.
METAR KPDX 030653Z 24006KT 10SM FEW049 BKN060 16/09 A3000 RMK AO2 SLP158 T01610089

More Conditions Fewer Conditions

Pressure 30.00 in
Visibility 10.0 miles
Clouds Few 4900 ft
Mostly Cloudy 6000 ft
Dew Point 47 °F
Humidity 64%
Rainfall 0.00 in
Snow Depth Not available.
UV 0 out of 12
Pollen 3.60 out of 12
Ozone Good
PM2.5 Good
Flu Activity Not available.
METAR KPDX 030653Z 24006KT 10SM FEW049 BKN060 16/09 A3000 RMK AO2 SLP158 T01610089

More Conditions Fewer Conditions

10-Day Weather Forecast

Almanac

Astronomy

Sep. 03, 2014 Rise Set
Actual Time 6:34 AM PDT 7:44 PM PDT
Civil Twilight 6:04 AM PDT 8:14 PM PDT
Nautical Twilight 5:27 AM PDT 8:51 PM PDT
Astronomical Twilight 4:49 AM PDT 9:29 PM PDT
Moon 3:41 PM PDT 12:24 AM PDT
Length of Visible Light 14h 10m
Length of Day
13h 09m
Tomorrow will be 3m 5s shorter.
First Quarter, 59% of the Moon is Illuminated
Today
First Quarter
Sep 8
Full
Sep 15
Last Quarter
Sep 24
New
Oct 1
First Quarter

Today's Extremes

State Highs State Lows

Community

WunderPhotos

Upload Photos

1,749,888 photos uploaded!

Nearby

Air Quality

  Air Quality AQ Index Pollutant
Yesterday Good
OZONE
Yesterday Good
PM2.5
Current Good
OZONE
Current Good
PM2.5
Tuesday Good
PM2.5
Wednesday Good
PM2.5

Snow Depth

Station Depth Elevation
Seine Creek 0 in 2000 ft
North Fork 1 in 3120 ft
Blazed Alder 0 in 3650 ft
Peavine Ridge 0 in 3500 ft
Mt. Hood Test Site 0 in 5400 ft

Earthquake Activity

City Distance Mag. Time & Date
No recent earthquake activity has been reported nearby.
Minimum magnitude displayed is 2.5.

Coastal Water Temperatures

Place Temperature
No Stations Reporting

Nearby Weather Stations